createdAt,value
2018-02-22T00:02:05.293Z,40.17
2018-02-22T00:04:39.175Z,35.10
2018-02-22T00:07:13.701Z,44.27
2018-02-22T00:09:48.717Z,37.47
2018-02-22T00:12:22.728Z,38.03
2018-02-22T00:14:57.566Z,39.47
2018-02-22T00:17:31.756Z,36.33
2018-02-22T00:20:06.075Z,37.67
2018-02-22T00:22:40.803Z,41.57
2018-02-22T00:25:14.695Z,46.10
2018-02-22T00:27:49.280Z,35.20
2018-02-22T00:30:23.892Z,43.40
2018-02-22T00:32:57.931Z,41.80
2018-02-22T00:35:31.922Z,38.67
2018-02-22T00:38:07.366Z,40.90
2018-02-22T00:40:42.100Z,40.17
2018-02-22T00:43:16.488Z,40.07
2018-02-22T00:45:50.970Z,39.33
2018-02-22T00:48:24.796Z,48.07
2018-02-22T00:50:59.307Z,43.03
2018-02-22T00:53:33.242Z,42.77
2018-02-22T00:56:07.115Z,39.87
2018-02-22T00:58:40.922Z,41.37
2018-02-22T01:01:14.638Z,39.50
2018-02-22T01:03:48.368Z,40.90
2018-02-22T01:06:22.924Z,45.33
2018-02-22T01:08:57.686Z,43.77
2018-02-22T01:11:31.735Z,39.33
2018-02-22T01:14:05.444Z,41.60
2018-02-22T01:16:40.482Z,39.83
2018-02-22T01:19:14.335Z,40.07
2018-02-22T01:21:48.186Z,42.67
2018-02-22T01:24:21.931Z,39.27
2018-02-22T01:26:55.709Z,49.47
2018-02-22T01:29:30.055Z,41.33
2018-02-22T01:32:04.356Z,43.97
2018-02-22T01:34:39.031Z,39.03
2018-02-22T01:37:13.079Z,38.90
2018-02-22T01:39:46.911Z,45.93
2018-02-22T01:42:20.791Z,43.40
2018-02-22T01:44:54.675Z,50.00
2018-02-22T01:47:29.282Z,46.63
2018-02-22T01:50:03.743Z,41.97
2018-02-22T01:52:38.003Z,43.43
2018-02-22T01:55:11.912Z,39.33
2018-02-22T01:57:45.919Z,35.53
2018-02-22T02:00:19.535Z,38.07
2018-02-22T02:02:53.490Z,36.23
2018-02-22T02:05:28.214Z,43.07
2018-02-22T02:08:02.424Z,42.80
2018-02-22T02:10:36.184Z,36.40
2018-02-22T02:13:10.899Z,37.90
2018-02-22T02:15:45.589Z,35.27
2018-02-22T02:18:19.770Z,36.23
2018-02-22T02:20:54.211Z,37.70
2018-02-22T02:23:28.274Z,40.03
2018-02-22T02:26:02.005Z,34.57
2018-02-22T02:28:35.958Z,35.37
2018-02-22T02:31:09.674Z,37.77
2018-02-22T02:33:43.463Z,34.87
2018-02-22T02:36:17.217Z,38.03
2018-02-22T02:38:51.124Z,36.03
2018-02-22T02:41:24.760Z,35.60
2018-02-22T02:43:59.540Z,34.10
2018-02-22T02:46:33.541Z,34.03
2018-02-22T02:49:07.222Z,35.80
2018-02-22T02:51:41.152Z,34.10
2018-02-22T02:54:15.053Z,32.77
2018-02-22T02:56:48.767Z,37.70
2018-02-22T02:59:23.478Z,34.83
2018-02-22T03:01:57.532Z,37.37
2018-02-22T03:04:32.218Z,35.17
2018-02-22T03:07:06.226Z,32.33
2018-02-22T03:09:40.872Z,32.57
2018-02-22T03:12:14.696Z,33.23
2018-02-22T03:14:48.553Z,30.23
2018-02-22T03:17:22.458Z,37.00
2018-02-22T03:19:56.328Z,36.70
2018-02-22T03:22:29.962Z,33.37
2018-02-22T03:25:03.845Z,29.80
2018-02-22T03:27:37.671Z,30.87
2018-02-22T03:30:11.887Z,30.60
2018-02-22T03:32:46.421Z,27.30
2018-02-22T03:35:20.264Z,26.50
2018-02-22T03:37:54.726Z,27.17
2018-02-22T03:40:28.996Z,26.33
2018-02-22T03:43:02.782Z,25.63
2018-02-22T03:45:36.615Z,25.03
2018-02-22T03:48:10.499Z,31.10
2018-02-22T03:50:44.854Z,29.47
2018-02-22T03:53:18.550Z,30.87
2018-02-22T03:55:52.453Z,27.73
2018-02-22T03:58:26.199Z,25.53
2018-02-22T04:00:59.971Z,24.50
2018-02-22T04:03:34.048Z,26.40
2018-02-22T04:06:08.780Z,25.97
2018-02-22T04:08:43.469Z,28.10
2018-02-22T04:11:18.327Z,28.30
2018-02-22T04:13:52.440Z,24.53
2018-02-22T04:16:26.357Z,25.17
2018-02-22T04:19:00.873Z,21.60
2018-02-22T04:21:34.599Z,26.27
2018-02-22T04:24:09.087Z,24.17
2018-02-22T04:26:43.133Z,28.97
2018-02-22T04:29:16.991Z,27.73
2018-02-22T04:31:51.747Z,28.60
2018-02-22T04:34:25.762Z,27.37
2018-02-22T04:36:59.816Z,25.83
2018-02-22T04:39:33.555Z,31.23
2018-02-22T04:42:07.515Z,27.27
2018-02-22T04:44:42.192Z,27.00
2018-02-22T04:47:16.187Z,23.77
2018-02-22T04:49:50.855Z,28.30
2018-02-22T04:52:24.957Z,31.73
2018-02-22T04:54:58.792Z,27.13
2018-02-22T04:57:32.743Z,24.53
2018-02-22T05:00:07.670Z,24.57
2018-02-22T05:02:41.836Z,26.13
2018-02-22T05:05:17.315Z,32.57
2018-02-22T05:07:51.547Z,28.27
2018-02-22T05:10:26.160Z,27.13
2018-02-22T05:13:00.337Z,28.53
2018-02-22T05:15:34.325Z,24.63
2018-02-22T05:18:09.143Z,27.60
2018-02-22T05:20:43.149Z,26.87
2018-02-22T05:23:17.875Z,25.00
2018-02-22T05:25:52.667Z,24.53
2018-02-22T05:28:27.432Z,29.13
2018-02-22T05:31:01.447Z,29.20
2018-02-22T05:33:35.218Z,28.40
2018-02-22T05:36:09.159Z,26.57
2018-02-22T05:38:43.032Z,33.30
2018-02-22T05:41:18.421Z,26.97
2018-02-22T05:43:52.771Z,27.43
2018-02-22T05:46:27.215Z,24.10
2018-02-22T05:49:01.497Z,24.43
2018-02-22T05:51:36.971Z,24.53
2018-02-22T05:54:11.070Z,27.67
2018-02-22T05:56:44.816Z,25.00
2018-02-22T05:59:18.819Z,23.13
2018-02-22T06:01:53.439Z,25.10
2018-02-22T06:04:27.373Z,26.83
2018-02-22T06:07:01.108Z,26.90
2018-02-22T06:09:34.909Z,22.43
2018-02-22T06:12:08.772Z,24.10
2018-02-22T06:14:43.622Z,24.47
2018-02-22T06:17:17.830Z,28.10
2018-02-22T06:19:51.715Z,23.17
2018-02-22T06:22:26.115Z,24.47
2018-02-22T06:25:00.580Z,24.07
2018-02-22T06:27:35.884Z,23.67
2018-02-22T06:30:10.417Z,21.37
2018-02-22T06:32:45.564Z,21.70
2018-02-22T06:35:19.972Z,24.57
2018-02-22T06:37:55.330Z,22.70
2018-02-22T06:40:29.538Z,36.20
2018-02-22T06:43:04.359Z,23.60
2018-02-22T06:45:39.088Z,24.53
2018-02-22T06:48:13.700Z,21.97
2018-02-22T06:50:47.781Z,23.60
2018-02-22T06:53:21.511Z,24.73
2018-02-22T06:55:55.414Z,25.23
2018-02-22T06:58:29.383Z,31.20
2018-02-22T07:01:03.180Z,25.93
2018-02-22T07:03:37.054Z,24.47
2018-02-22T07:06:11.542Z,28.47
2018-02-22T07:08:45.271Z,22.93
2018-02-22T07:11:19.144Z,26.73
2018-02-22T07:13:53.022Z,31.30
2018-02-22T07:16:27.866Z,29.83
2018-02-22T07:19:01.867Z,28.30
2018-02-22T07:21:35.926Z,29.97
2018-02-22T07:24:09.783Z,24.27
2018-02-22T07:26:44.621Z,23.33
2018-02-22T07:29:18.640Z,27.10
2018-02-22T07:31:52.623Z,28.27
2018-02-22T07:34:26.414Z,26.67
2018-02-22T07:37:01.159Z,25.83
2018-02-22T07:39:35.015Z,25.27
2018-02-22T07:42:09.687Z,24.70
2018-02-22T07:44:43.784Z,27.57
2018-02-22T07:47:18.439Z,29.63
2018-02-22T07:49:53.422Z,27.60
2018-02-22T07:52:27.556Z,23.60
2018-02-22T07:55:01.328Z,32.47
2018-02-22T07:57:36.001Z,24.50
2018-02-22T08:00:10.508Z,25.07
2018-02-22T08:02:44.655Z,28.80
2018-02-22T08:05:19.341Z,21.93
2018-02-22T08:07:53.397Z,30.40
2018-02-22T08:10:28.794Z,23.27
2018-02-22T08:13:03.654Z,24.90
2018-02-22T08:15:37.523Z,22.73
2018-02-22T08:18:12.469Z,21.67
2018-02-22T08:20:46.307Z,22.03
2018-02-22T08:23:21.200Z,23.67
2018-02-22T08:25:55.925Z,19.20
2018-02-22T08:28:30.256Z,21.13
2018-02-22T08:31:03.987Z,19.33
2018-02-22T08:33:37.797Z,20.03
2018-02-22T08:36:13.288Z,20.10
2018-02-22T08:38:47.677Z,19.90
2018-02-22T08:41:21.733Z,19.30
2018-02-22T08:43:56.279Z,19.63
2018-02-22T08:46:30.287Z,19.83
2018-02-22T08:49:05.003Z,20.40
2018-02-22T08:51:39.911Z,21.13
2018-02-22T08:54:14.063Z,16.53
2018-02-22T08:56:48.652Z,17.70
2018-02-22T08:59:22.636Z,19.20
2018-02-22T09:01:56.349Z,18.53
2018-02-22T09:04:30.283Z,18.93
2018-02-22T09:07:04.691Z,20.80
2018-02-22T09:09:38.774Z,19.93
2018-02-22T09:12:13.428Z,18.60
2018-02-22T09:14:48.412Z,22.43
2018-02-22T09:17:22.529Z,20.67
2018-02-22T09:19:56.535Z,17.20
2018-02-22T09:22:30.323Z,15.63
2018-02-22T09:25:04.223Z,14.83
2018-02-22T09:27:38.862Z,16.57
2018-02-22T09:30:13.699Z,24.10
2018-02-22T09:32:47.796Z,15.77
2018-02-22T09:35:22.186Z,15.97
2018-02-22T09:37:55.923Z,18.67
2018-02-22T09:40:30.435Z,17.40
2018-02-22T09:43:04.643Z,14.97
2018-02-22T09:45:39.351Z,14.43
2018-02-22T09:48:13.244Z,14.47
2018-02-22T09:50:47.831Z,13.57
2018-02-22T09:53:21.626Z,13.83
2018-02-22T09:55:56.250Z,14.17
2018-02-22T09:58:31.122Z,11.73
2018-02-22T10:01:06.313Z,12.10
2018-02-22T10:03:40.131Z,14.93
2018-02-22T10:06:15.697Z,12.87
2018-02-22T10:08:49.773Z,11.43
2018-02-22T10:11:24.327Z,12.27
2018-02-22T10:13:58.364Z,11.83
2018-02-22T10:16:32.240Z,10.07
2018-02-22T10:19:06.041Z,12.50
2018-02-22T10:21:40.912Z,12.87
2018-02-22T10:24:15.653Z,12.00
2018-02-22T10:26:49.908Z,8.17
2018-02-22T10:29:24.377Z,11.43
2018-02-22T10:31:58.458Z,15.13
2018-02-22T10:34:32.365Z,11.33
2018-02-22T10:37:06.741Z,14.43
2018-02-22T10:39:41.289Z,11.37
2018-02-22T10:42:16.049Z,8.87
2018-02-22T10:44:50.253Z,8.80
2018-02-22T10:47:24.160Z,8.57
2018-02-22T10:49:58.311Z,9.10
2018-02-22T10:52:32.999Z,8.47
2018-02-22T10:55:06.887Z,11.17
2018-02-22T10:57:40.827Z,9.50
2018-02-22T11:00:15.467Z,9.27
2018-02-22T11:02:53.033Z,6.87
2018-02-22T11:05:26.753Z,7.23
2018-02-22T11:08:00.941Z,8.13
2018-02-22T11:10:34.760Z,9.43
2018-02-22T11:13:11.145Z,8.10
2018-02-22T11:15:45.876Z,9.23
2018-02-22T11:18:20.216Z,12.77
2018-02-22T11:20:54.039Z,8.30
2018-02-22T11:23:28.086Z,9.73
2018-02-22T11:26:02.657Z,8.93
2018-02-22T11:28:37.487Z,7.20
2018-02-22T11:31:11.555Z,13.23
2018-02-22T11:33:45.445Z,8.27
2018-02-22T11:36:19.177Z,9.60
2018-02-22T11:38:53.749Z,7.43
2018-02-22T11:41:27.819Z,27.83
2018-02-22T11:44:01.546Z,13.07
2018-02-22T11:46:36.201Z,16.70
2018-02-22T11:49:10.820Z,10.13
2018-02-22T11:51:44.760Z,10.50
2018-02-22T11:54:18.543Z,10.10
2018-02-22T11:56:52.452Z,14.10
2018-02-22T11:59:26.259Z,10.00
2018-02-22T12:02:01.057Z,8.47
2018-02-22T12:04:35.214Z,10.27
2018-02-22T12:07:09.155Z,7.17
2018-02-22T12:09:42.931Z,10.70
2018-02-22T12:12:18.216Z,15.00
2018-02-22T12:14:52.462Z,12.17
2018-02-22T12:17:26.447Z,12.40
2018-02-22T12:20:00.393Z,12.63
2018-02-22T12:22:34.082Z,7.80
2018-02-22T12:25:08.437Z,11.30
2018-02-22T12:27:42.219Z,9.20
2018-02-22T12:30:16.153Z,11.00
2018-02-22T12:32:50.721Z,8.33
2018-02-22T12:35:24.775Z,9.53
2018-02-22T12:37:59.394Z,13.33
2018-02-22T12:40:33.492Z,14.87
2018-02-22T12:43:07.764Z,18.83
2018-02-22T12:45:42.031Z,11.50
2018-02-22T12:48:15.743Z,13.57
2018-02-22T12:50:49.547Z,17.60
2018-02-22T12:53:24.002Z,15.00
2018-02-22T12:55:57.978Z,9.60
2018-02-22T12:58:32.443Z,11.13
2018-02-22T13:01:06.558Z,11.73
2018-02-22T13:03:40.381Z,12.57
2018-02-22T13:06:14.434Z,12.27
2018-02-22T13:08:49.412Z,22.83
2018-02-22T13:11:24.097Z,14.23
2018-02-22T13:13:58.771Z,14.40
2018-02-22T13:16:32.768Z,11.60
2018-02-22T13:19:06.715Z,12.63
2018-02-22T13:21:41.474Z,16.30
2018-02-22T13:24:15.523Z,18.87
2018-02-22T13:26:50.276Z,15.17
2018-02-22T13:29:24.347Z,13.67
2018-02-22T13:31:58.898Z,17.40
2018-02-22T13:34:33.858Z,16.67
2018-02-22T13:37:19.709Z,14.43
2018-02-22T13:39:53.503Z,12.90
2018-02-22T13:42:27.296Z,9.80
2018-02-22T13:45:14.383Z,10.03
2018-02-22T13:47:49.372Z,9.63
2018-02-22T13:50:35.710Z,8.50
2018-02-22T13:53:10.150Z,14.27
2018-02-22T13:58:31.568Z,12.17
2018-02-22T14:01:18.110Z,7.30
2018-02-22T14:03:52.732Z,9.00
2018-02-22T14:06:27.032Z,12.53
2018-02-22T14:09:01.176Z,10.43
2018-02-22T14:11:35.189Z,5.70
2018-02-22T14:14:09.926Z,9.30
2018-02-22T14:16:44.850Z,12.17
2018-02-22T14:19:19.127Z,21.47
2018-02-22T14:21:54.406Z,16.33
2018-02-22T14:24:29.664Z,14.53
2018-02-22T14:27:04.654Z,12.93
2018-02-22T14:29:38.929Z,14.33
2018-02-22T14:32:13.331Z,10.80
2018-02-22T14:34:48.068Z,8.90
2018-02-22T14:37:23.380Z,13.97
2018-02-22T14:39:57.067Z,11.53
2018-02-22T14:42:31.706Z,11.37
2018-02-22T14:45:06.319Z,13.87
2018-02-22T14:47:40.360Z,11.67
2018-02-22T14:50:15.728Z,14.63
2018-02-22T14:52:50.167Z,14.17
2018-02-22T14:55:24.896Z,20.70
2018-02-22T14:57:59.403Z,15.93
2018-02-22T15:00:33.554Z,15.67
2018-02-22T15:03:08.510Z,19.50
2018-02-22T15:05:42.288Z,14.10
2018-02-22T15:08:16.199Z,10.37
2018-02-22T15:10:50.948Z,12.10
2018-02-22T15:13:25.557Z,12.70
2018-02-22T15:15:59.433Z,13.67
2018-02-22T15:18:33.739Z,21.80
2018-02-22T15:21:08.255Z,14.87
2018-02-22T15:23:42.642Z,15.03
2018-02-22T15:26:17.082Z,14.13
2018-02-22T15:28:51.160Z,15.00
2018-02-22T15:31:25.895Z,17.23
2018-02-22T15:33:59.631Z,15.37
2018-02-22T15:36:33.835Z,13.63
2018-02-22T15:39:08.311Z,13.90
2018-02-22T15:41:43.584Z,15.57
2018-02-22T15:44:18.166Z,11.10
2018-02-22T15:46:52.257Z,18.47
2018-02-22T15:49:26.998Z,21.00
2018-02-22T15:52:02.361Z,25.00
2018-02-22T15:54:36.094Z,21.47
2018-02-22T15:57:11.229Z,16.67
2018-02-22T15:59:45.729Z,25.90
2018-02-22T16:02:20.765Z,26.97
2018-02-22T16:04:54.982Z,24.57
2018-02-22T16:07:29.232Z,31.53
2018-02-22T16:10:03.512Z,37.70
2018-02-22T16:12:38.653Z,15.47
2018-02-22T16:15:13.094Z,18.53
2018-02-22T16:17:47.124Z,14.60
2018-02-22T16:20:21.623Z,12.47
2018-02-22T16:22:55.833Z,15.50
2018-02-22T16:25:30.354Z,19.07
2018-02-22T16:28:05.596Z,16.10
2018-02-22T16:30:40.051Z,19.83
2018-02-22T16:33:14.220Z,20.93
2018-02-22T16:35:49.610Z,19.50
2018-02-22T16:38:23.914Z,22.93
2018-02-22T16:40:57.993Z,24.83
2018-02-22T16:43:33.047Z,17.27
2018-02-22T16:46:07.368Z,14.03
2018-02-22T16:48:42.292Z,23.77
2018-02-22T16:51:16.303Z,17.00
2018-02-22T16:53:50.351Z,15.17
2018-02-22T16:56:24.094Z,28.43
2018-02-22T16:58:59.036Z,17.53
2018-02-22T17:01:33.303Z,17.27
2018-02-22T17:04:07.987Z,13.17
2018-02-22T17:06:42.249Z,16.80
2018-02-22T17:09:16.482Z,19.60
2018-02-22T17:11:50.733Z,10.93
2018-02-22T17:14:25.082Z,17.30
2018-02-22T17:17:00.241Z,19.43
2018-02-22T17:19:34.535Z,26.03
2018-02-22T17:22:08.785Z,15.03
2018-02-22T17:24:43.957Z,20.83
2018-02-22T17:27:24.313Z,14.30
2018-02-22T17:30:04.581Z,14.30
2018-02-22T17:32:39.023Z,19.63
2018-02-22T17:35:18.759Z,14.70
2018-02-22T17:40:58.899Z,19.33
2018-02-22T17:43:33.204Z,20.43
2018-02-22T17:46:07.054Z,14.93
2018-02-22T17:48:41.715Z,21.20
2018-02-22T17:51:16.295Z,19.00
2018-02-22T17:53:50.009Z,16.63
2018-02-22T17:56:23.777Z,17.47
2018-02-22T17:58:58.540Z,17.10
2018-02-22T18:01:33.616Z,18.17
2018-02-22T18:04:09.501Z,20.07
2018-02-22T18:06:43.983Z,17.57
2018-02-22T18:09:17.826Z,20.77
2018-02-22T18:11:51.703Z,13.37
2018-02-22T18:14:25.671Z,15.40
2018-02-22T18:17:00.432Z,17.67
2018-02-22T18:19:34.494Z,19.07
2018-02-22T18:22:08.465Z,16.03
2018-02-22T18:24:42.994Z,14.47
2018-02-22T18:27:17.531Z,14.70
2018-02-22T18:29:51.700Z,17.80
2018-02-22T18:32:25.502Z,18.43
2018-02-22T18:34:59.281Z,14.43
2018-02-22T18:37:38.917Z,18.07
2018-02-22T18:40:18.461Z,16.40
2018-02-22T18:42:53.473Z,17.90
2018-02-22T18:45:27.462Z,21.20
2018-02-22T18:48:01.185Z,17.03
2018-02-22T18:50:35.005Z,27.43
2018-02-22T18:53:09.022Z,15.87
2018-02-22T18:55:42.754Z,22.60
2018-02-22T18:58:16.645Z,17.23
2018-02-22T19:00:51.252Z,18.07
2018-02-22T19:03:25.898Z,23.80
2018-02-22T19:05:59.537Z,14.77
2018-02-22T19:08:34.333Z,25.87
2018-02-22T19:11:09.140Z,16.03
2018-02-22T19:13:43.838Z,17.87
2018-02-22T19:16:18.033Z,21.13
2018-02-22T19:18:52.012Z,19.67
2018-02-22T19:21:26.563Z,19.03
2018-02-22T19:24:00.437Z,23.33
2018-02-22T19:26:34.064Z,27.30
2018-02-22T19:29:08.730Z,26.17
2018-02-22T19:31:43.048Z,28.43
2018-02-22T19:34:18.395Z,33.37
2018-02-22T19:36:52.863Z,34.67
2018-02-22T19:39:27.211Z,30.60
2018-02-22T19:42:01.922Z,28.30
2018-02-22T19:44:36.406Z,15.60
2018-02-22T19:47:10.999Z,29.63
2018-02-22T19:49:45.171Z,34.77
2018-02-22T19:52:21.378Z,25.90
2018-02-22T19:54:55.888Z,23.83
2018-02-22T19:57:31.391Z,16.60
2018-02-22T20:00:05.560Z,16.93
2018-02-22T20:02:40.071Z,29.03
2018-02-22T20:05:13.820Z,22.00
2018-02-22T20:07:47.578Z,20.70
2018-02-22T20:10:22.529Z,25.97
2018-02-22T20:12:57.039Z,20.97
2018-02-22T20:15:31.660Z,18.23
2018-02-22T20:18:05.925Z,18.13
2018-02-22T20:20:39.969Z,21.67
2018-02-22T20:23:14.313Z,21.23
2018-02-22T20:25:48.196Z,25.33
2018-02-22T20:28:22.750Z,18.23
2018-02-22T20:30:56.590Z,27.23
2018-02-22T20:33:30.651Z,26.07
2018-02-22T20:36:05.149Z,18.73
2018-02-22T20:38:39.901Z,24.27
2018-02-22T20:41:14.665Z,23.50
2018-02-22T20:43:48.671Z,21.83
2018-02-22T20:46:22.701Z,23.27
2018-02-22T20:48:56.710Z,36.27
2018-02-22T20:51:38.776Z,24.17
2018-02-22T20:54:13.111Z,26.07
2018-02-22T20:56:47.522Z,25.67
2018-02-22T20:59:21.630Z,29.53
2018-02-22T21:01:58.444Z,23.73
2018-02-22T21:04:33.675Z,20.93
2018-02-22T21:07:08.023Z,24.83
2018-02-22T21:09:42.460Z,24.60
2018-02-22T21:12:16.777Z,23.87
2018-02-22T21:14:50.569Z,23.53
2018-02-22T21:17:26.038Z,26.63
2018-02-22T21:20:00.195Z,34.67
2018-02-22T21:22:33.970Z,28.07
2018-02-22T21:25:08.695Z,27.13
2018-02-22T21:27:42.867Z,31.60
2018-02-22T21:30:17.529Z,32.70
2018-02-22T21:32:51.792Z,28.03
2018-02-22T21:35:26.342Z,33.87
2018-02-22T21:38:00.294Z,25.07
2018-02-22T21:40:34.993Z,17.97
2018-02-22T21:43:08.639Z,19.73
2018-02-22T21:45:43.441Z,31.20
2018-02-22T21:48:18.346Z,29.57
2018-02-22T21:50:53.998Z,28.17
2018-02-22T21:53:27.986Z,21.33
2018-02-22T21:56:01.700Z,17.67
2018-02-22T21:58:35.769Z,19.10
2018-02-22T22:01:09.461Z,21.60
2018-02-22T22:03:43.387Z,22.77
2018-02-22T22:06:17.067Z,17.63
2018-02-22T22:08:51.895Z,23.30
2018-02-22T22:11:25.766Z,20.43
2018-02-22T22:14:00.628Z,31.73
2018-02-22T22:16:34.671Z,24.33
2018-02-22T22:19:08.870Z,18.00
2018-02-22T22:21:43.537Z,20.33
2018-02-22T22:24:18.549Z,22.43
2018-02-22T22:26:52.569Z,23.40
2018-02-22T22:29:26.242Z,37.23
2018-02-22T22:32:01.947Z,44.70
2018-02-22T22:34:36.614Z,20.87
2018-02-22T22:37:11.198Z,25.73
2018-02-22T22:39:45.181Z,25.10
2018-02-22T22:42:19.047Z,24.30
2018-02-22T22:44:52.707Z,20.33
2018-02-22T22:47:27.326Z,24.73
2018-02-22T22:50:01.770Z,32.27
2018-02-22T22:52:36.526Z,18.60
2018-02-22T22:55:10.803Z,19.33
2018-02-22T22:57:44.561Z,33.13
2018-02-22T23:00:22.114Z,28.97
2018-02-22T23:02:56.329Z,20.27
2018-02-22T23:05:30.374Z,26.83
2018-02-22T23:08:05.078Z,23.57
2018-02-22T23:10:38.817Z,21.43
2018-02-22T23:13:12.713Z,20.83
2018-02-22T23:15:46.462Z,32.00
2018-02-22T23:18:20.959Z,20.70
2018-02-22T23:20:54.945Z,20.37
2018-02-22T23:23:28.650Z,19.13
2018-02-22T23:26:02.613Z,25.90
2018-02-22T23:28:36.348Z,24.33
2018-02-22T23:31:10.120Z,26.63
2018-02-22T23:33:44.255Z,21.27
2018-02-22T23:36:18.913Z,22.63
2018-02-22T23:38:53.213Z,20.50
2018-02-22T23:41:45.008Z,21.50
2018-02-22T23:44:19.649Z,31.90
2018-02-22T23:46:53.538Z,33.43
2018-02-22T23:49:27.613Z,31.20
2018-02-22T23:52:01.928Z,24.33
2018-02-22T23:54:35.921Z,32.13
2018-02-22T23:57:09.802Z,32.20
2018-02-22T23:59:44.404Z,29.97
